Time;durP1;ratioP1;P1;durP2;ratioP2;P2;SDS_P1;SDS_P2;PMS_P1;PMS_P2;Temp;Humidity;BMP_temperature;BMP_pressure;BME280_temperature;BME280_humidity;BME280_pressure;Samples;Min_cycle;Max_cycle;Signal;HPM_P1;HPM_P2
2022/10/16 00:00:00;;;;;;;18.10;16.20;;;;;;;13.17;73.41;98057.86;107219;1286;22293;31
2022/10/16 00:02:53;;;;;;;18.70;15.60;;;;;;;13.13;73.44;98054.29;107304;1293;22285;31
2022/10/16 00:05:32;;;;;;;16.90;15.20;;;;;;;13.01;73.48;98048.03;107073;1298;22228;31
2022/10/16 00:08:27;;;;;;;18.40;16.60;;;;;;;13.03;73.75;98060.80;106996;1292;22400;31
2022/10/16 00:11:11;;;;;;;18.70;16.70;;;;;;;12.95;73.87;98064.51;106594;1290;22870;31
2022/10/16 00:14:15;;;;;;;20.60;15.90;;;;;;;12.90;74.22;98067.03;106789;1291;22254;31
2022/10/16 00:17:02;;;;;;;18.00;15.30;;;;;;;12.78;74.14;98068.73;106191;1294;22365;31
2022/10/16 00:19:30;;;;;;;16.90;15.10;;;;;;;12.75;74.27;98067.02;107033;1289;22444;-82
2022/10/16 00:22:24;;;;;;;18.60;14.70;;;;;;;12.74;74.51;98067.93;106217;1287;22086;-83
2022/10/16 00:24:58;;;;;;;23.40;21.10;;;;;;;12.78;74.77;98073.61;106572;1295;22305;-86
2022/10/16 00:27:31;;;;;;;17.80;16.00;;;;;;;12.80;75.02;98073.40;102251;1294;22636;31
2022/10/16 00:30:08;;;;;;;18.30;15.90;;;;;;;12.77;75.69;98077.79;106161;1284;22264;31
2022/10/16 00:32:36;;;;;;;21.20;16.30;;;;;;;12.65;76.19;98076.73;105716;1321;22222;-85
2022/10/16 00:35:04;;;;;;;16.10;14.60;;;;;;;12.60;76.03;98076.77;106207;1289;22367;-88
2022/10/16 00:37:39;;;;;;;16.30;14.60;;;;;;;12.58;76.28;98080.55;106027;1286;24355;31
2022/10/16 00:40:31;;;;;;;15.90;14.20;;;;;;;12.59;77.07;98083.20;106240;1285;22430;31
2022/10/16 00:43:13;;;;;;;20.20;15.70;;;;;;;12.53;77.30;98084.44;107027;1292;22285;31
2022/10/16 00:46:02;;;;;;;20.00;18.10;;;;;;;12.45;77.01;98089.05;103808;1276;22311;31
2022/10/16 00:48:37;;;;;;;18.60;16.30;;;;;;;12.42;76.88;98084.13;105600;1289;22282;-82
2022/10/16 00:51:07;;;;;;;20.30;18.10;;;;;;;12.47;77.14;98088.08;105860;1290;22086;-82
2022/10/16 00:53:35;;;;;;;25.90;23.10;;;;;;;12.53;77.06;98087.49;106163;1308;23771;-87
2022/10/16 00:56:04;;;;;;;35.90;32.10;;;;;;;12.60;76.96;98086.98;105559;1327;22231;-92
2022/10/16 00:58:32;;;;;;;39.60;35.40;;;;;;;12.64;77.22;98084.80;105453;1324;22052;-91
2022/10/16 01:01:05;;;;;;;32.60;29.10;;;;;;;12.70;77.56;98086.34;106189;1290;22374;31
2022/10/16 01:03:36;;;;;;;32.70;29.70;;;;;;;12.73;77.41;98085.20;105754;1286;21811;-88
2022/10/16 01:06:21;;;;;;;28.00;22.40;;;;;;;12.74;77.20;98090.36;105579;1317;22893;-89
2022/10/16 01:09:03;;;;;;;18.30;16.00;;;;;;;12.76;77.31;98093.07;105702;1315;22292;-83
2022/10/16 01:12:04;;;;;;;19.10;16.10;;;;;;;12.78;77.07;98092.91;106150;1307;22138;-87
2022/10/16 01:14:52;;;;;;;22.20;20.10;;;;;;;12.80;77.46;98094.55;105903;1286;22013;-84
2022/10/16 01:17:47;;;;;;;23.50;21.30;;;;;;;12.80;77.53;98095.79;105922;1283;22206;-86
2022/10/16 01:20:27;;;;;;;25.10;22.50;;;;;;;12.80;77.54;98095.18;105806;1296;22169;-87
2022/10/16 01:23:21;;;;;;;18.60;16.60;;;;;;;12.80;77.63;98099.52;105831;1292;22333;31
2022/10/16 01:26:04;;;;;;;19.10;17.30;;;;;;;12.77;77.74;98101.05;105780;1293;22438;-83
2022/10/16 01:28:39;;;;;;;17.80;16.00;;;;;;;12.75;77.75;98103.58;105596;1317;22093;-87
2022/10/16 01:31:11;;;;;;;18.10;14.70;;;;;;;12.77;77.87;98105.38;105581;1324;22247;-91
2022/10/16 01:33:44;;;;;;;17.50;15.60;;;;;;;12.77;77.96;98105.59;105630;1318;23009;-82
2022/10/16 01:36:17;;;;;;;19.10;17.10;;;;;;;12.74;78.20;98106.00;106119;1301;22184;-88
2022/10/16 01:38:47;;;;;;;20.30;18.50;;;;;;;12.72;78.38;98104.14;105722;1318;22263;-82
2022/10/16 01:41:24;;;;;;;20.80;18.60;;;;;;;12.71;78.35;98103.67;105225;1320;21926;-87
2022/10/16 01:44:04;;;;;;;22.50;20.20;;;;;;;12.70;78.50;98100.95;105735;1315;21820;-80
2022/10/16 01:46:35;;;;;;;21.80;19.50;;;;;;;12.71;78.29;98099.67;105943;1298;22081;-88
2022/10/16 01:49:05;;;;;;;20.10;17.80;;;;;;;12.71;78.41;98096.37;105997;1311;22252;-91
2022/10/16 01:51:35;;;;;;;19.70;17.60;;;;;;;12.73;78.65;98091.95;106149;1302;21907;-88
2022/10/16 01:54:07;;;;;;;20.30;17.70;;;;;;;12.73;78.52;98087.83;105744;1317;22213;-86
2022/10/16 01:56:37;;;;;;;20.70;18.50;;;;;;;12.71;78.60;98087.13;105920;1283;21892;-85
2022/10/16 01:59:11;;;;;;;20.40;18.40;;;;;;;12.70;78.86;98088.45;105690;1315;23255;-81
2022/10/16 02:01:44;;;;;;;20.80;18.60;;;;;;;12.67;78.55;98095.22;106257;1299;22173;-85
2022/10/16 02:04:17;;;;;;;19.40;17.30;;;;;;;12.66;78.70;98096.11;105665;1318;21919;-88
2022/10/16 02:06:45;;;;;;;22.50;17.50;;;;;;;12.67;78.64;98101.00;105884;1323;22194;-86
2022/10/16 02:09:15;;;;;;;20.90;18.90;;;;;;;12.68;78.74;98097.53;106245;1314;22132;-88
2022/10/16 02:11:44;;;;;;;21.50;19.20;;;;;;;12.68;78.66;98098.70;105816;1323;22200;-88
2022/10/16 02:14:18;;;;;;;22.30;19.90;;;;;;;12.65;78.62;98102.55;106387;1292;22178;-84
2022/10/16 02:16:52;;;;;;;;;;;;;;;12.62;78.63;98105.14;105924;1293;22450;-83
2022/10/16 02:19:21;;;;;;;21.70;18.60;;;;;;;12.54;78.39;98104.25;106189;1307;22203;-85
2022/10/16 02:21:59;;;;;;;21.50;19.30;;;;;;;12.44;78.44;98104.69;105876;1311;22097;-90
2022/10/16 02:24:51;;;;;;;22.90;20.70;;;;;;;12.40;78.56;98103.70;106321;1307;22668;-90
2022/10/16 02:27:39;;;;;;;21.70;19.50;;;;;;;12.37;78.62;98102.36;105862;1317;23047;-85
2022/10/16 02:30:15;;;;;;;23.10;18.70;;;;;;;12.34;78.82;98110.58;105916;1314;22095;-90
2022/10/16 02:32:46;;;;;;;20.10;17.90;;;;;;;12.19;79.18;98108.70;106294;1307;22066;-88
2022/10/16 02:35:18;;;;;;;21.40;19.40;;;;;;;12.04;79.58;98109.67;105683;1316;22226;-86
2022/10/16 02:37:47;;;;;;;20.00;17.90;;;;;;;11.88;79.74;98107.30;105241;1324;22742;-88
2022/10/16 02:40:16;;;;;;;21.10;17.60;;;;;;;11.76;79.99;98108.81;105522;1324;22224;-89
2022/10/16 02:42:54;;;;;;;19.90;17.80;;;;;;;11.72;79.78;98111.02;105641;1302;22077;-85
2022/10/16 02:45:23;;;;;;;19.60;17.70;;;;;;;11.72;79.89;98109.55;105250;1321;22100;-91
2022/10/16 02:47:51;;;;;;;20.80;18.90;;;;;;;11.73;80.10;98112.65;105281;1323;22932;-91
2022/10/16 02:50:19;;;;;;;19.00;17.00;;;;;;;11.72;80.23;98110.89;105697;1324;22193;-88
2022/10/16 02:52:47;;;;;;;20.50;18.40;;;;;;;11.64;80.43;98106.73;105566;1324;22687;-90
2022/10/16 02:55:15;;;;;;;20.40;17.60;;;;;;;11.52;80.40;98114.25;105631;1322;22190;-90
2022/10/16 02:57:43;;;;;;;20.40;17.50;;;;;;;11.44;80.36;98110.42;106226;1309;22113;-92
2022/10/16 03:00:13;;;;;;;20.50;18.40;;;;;;;11.42;80.54;98106.48;106243;1309;22981;-93
2022/10/16 03:02:41;;;;;;;19.80;17.90;;;;;;;11.43;80.56;98110.32;106271;1302;22080;-93
2022/10/16 03:05:10;;;;;;;20.10;18.00;;;;;;;11.41;80.83;98108.41;105583;1324;22051;-92
2022/10/16 03:07:38;;;;;;;18.20;16.40;;;;;;;11.32;80.73;98108.23;105866;1317;22106;-93
2022/10/16 03:10:07;;;;;;;19.30;17.30;;;;;;;11.24;81.23;98112.08;105666;1324;22200;-88
2022/10/16 03:12:35;;;;;;;17.70;16.10;;;;;;;11.15;81.43;98119.26;105219;1324;22261;-90
2022/10/16 03:15:06;;;;;;;18.40;15.90;;;;;;;11.09;81.61;98120.96;105568;1324;22116;-92
2022/10/16 03:17:34;;;;;;;18.90;16.40;;;;;;;11.06;81.54;98120.92;105483;1324;22187;-92
2022/10/16 03:20:43;;;;;;;21.00;17.90;;;;;;;11.08;81.68;98122.77;105494;1324;22091;-93
2022/10/16 03:23:11;;;;;;;19.00;17.10;;;;;;;11.10;82.01;98126.46;105386;1320;22570;-93
2022/10/16 03:25:39;;;;;;;19.70;17.70;;;;;;;11.09;81.97;98126.33;105557;1324;22126;-89
2022/10/16 03:28:08;;;;;;;18.10;16.20;;;;;;;11.04;82.00;98127.05;105680;1317;22091;-93
2022/10/16 03:30:36;;;;;;;18.80;17.10;;;;;;;10.98;82.21;98127.86;106037;1309;22182;-92
2022/10/16 03:33:04;;;;;;;21.60;15.90;;;;;;;10.96;82.44;98131.66;105527;1318;22198;-87
2022/10/16 03:35:32;;;;;;;19.70;17.50;;;;;;;10.98;82.44;98138.80;105511;1322;22757;-93
2022/10/16 03:38:00;;;;;;;16.80;15.20;;;;;;;11.03;82.56;98137.63;105338;1324;21983;-91
2022/10/16 03:40:28;;;;;;;19.10;17.00;;;;;;;11.11;82.78;98143.23;105439;1321;22176;-85
2022/10/16 03:42:57;;;;;;;21.50;17.20;;;;;;;11.16;82.88;98155.33;106096;1315;22061;-92
2022/10/16 03:45:26;;;;;;;16.60;14.90;;;;;;;11.16;82.87;98156.39;105600;1322;22212;-88
2022/10/16 03:47:53;;;;;;;18.60;16.10;;;;;;;11.15;82.81;98151.98;105642;1324;22217;-88
2022/10/16 03:50:21;;;;;;;16.40;14.50;;;;;;;11.21;82.93;98151.99;106124;1302;22188;-92
2022/10/16 03:52:49;;;;;;;18.00;16.10;;;;;;;11.27;82.85;98152.75;105552;1324;22158;-85
2022/10/16 03:55:17;;;;;;;20.00;17.50;;;;;;;11.32;82.94;98155.33;105699;1324;22113;-91
2022/10/16 03:57:45;;;;;;;20.10;17.80;;;;;;;11.35;82.88;98155.80;105633;1318;22869;-92
2022/10/16 04:00:13;;;;;;;29.30;16.20;;;;;;;11.38;82.96;98152.84;105709;1317;22289;-92
2022/10/16 04:02:41;;;;;;;15.30;13.80;;;;;;;11.41;83.11;98156.77;106045;1298;22194;-92
2022/10/16 04:05:11;;;;;;;14.90;12.60;;;;;;;11.34;83.48;98153.82;105310;1324;22193;-90
2022/10/16 04:07:39;;;;;;;16.60;13.30;;;;;;;11.26;83.40;98155.26;105433;1324;22200;-86
2022/10/16 04:10:07;;;;;;;18.90;14.50;;;;;;;11.21;83.55;98157.70;105834;1311;22781;-95
2022/10/16 04:12:35;;;;;;;16.00;14.60;;;;;;;11.14;83.69;98160.81;105663;1324;22199;-90
2022/10/16 04:15:03;;;;;;;14.90;13.30;;;;;;;11.05;83.72;98162.09;105198;1324;22256;-91
2022/10/16 04:17:31;;;;;;;14.90;13.50;;;;;;;10.97;83.98;98164.70;105581;1317;22287;-92
2022/10/16 04:19:59;;;;;;;15.30;13.80;;;;;;;10.91;84.00;98159.95;105854;1317;22185;-85
2022/10/16 04:22:26;;;;;;;18.60;15.00;;;;;;;10.86;83.86;98157.00;105543;1318;22207;-89
2022/10/16 04:24:59;;;;;;;14.00;12.60;;;;;;;10.84;83.97;98163.00;105789;1317;22206;-88
2022/10/16 04:27:31;;;;;;;16.90;15.40;;;;;;;10.79;84.50;98165.02;105722;1317;22283;-90
2022/10/16 04:30:00;;;;;;;17.40;15.90;;;;;;;10.70;84.39;98160.75;105860;1311;22187;-89
2022/10/16 04:32:28;;;;;;;16.90;15.30;;;;;;;10.68;84.51;98159.91;105802;1308;22177;-92
2022/10/16 04:34:55;;;;;;;15.80;14.30;;;;;;;10.69;84.30;98162.39;105493;1318;22222;-94
2022/10/16 04:37:27;;;;;;;15.50;13.90;;;;;;;10.72;84.48;98164.17;105815;1302;22259;-90
2022/10/16 04:39:55;;;;;;;17.00;15.50;;;;;;;10.77;84.38;98168.31;105852;1312;23055;-90
2022/10/16 04:42:23;;;;;;;21.90;14.30;;;;;;;10.81;84.36;98172.44;105505;1324;22202;-86
2022/10/16 04:44:51;;;;;;;16.50;14.80;;;;;;;10.81;84.44;98170.98;105386;1324;22098;-83
2022/10/16 04:47:20;;;;;;;16.50;14.80;;;;;;;10.71;84.59;98174.38;105585;1303;21938;-82
2022/10/16 04:49:48;;;;;;;17.00;14.00;;;;;;;10.61;84.59;98173.65;105587;1324;22285;-80
2022/10/16 04:52:18;;;;;;;14.80;13.40;;;;;;;10.61;84.55;98169.88;105629;1324;22257;-85
2022/10/16 04:54:46;;;;;;;23.10;15.10;;;;;;;10.61;84.54;98168.11;105928;1287;22346;-84
2022/10/16 04:57:14;;;;;;;17.00;15.50;;;;;;;10.64;84.76;98163.15;105750;1308;22074;-90
2022/10/16 04:59:42;;;;;;;18.40;16.60;;;;;;;10.62;84.55;98171.27;105741;1301;22083;-93
2022/10/16 05:02:10;;;;;;;17.90;15.90;;;;;;;10.57;84.73;98170.37;105710;1320;22198;-89
2022/10/16 05:04:38;;;;;;;22.10;17.20;;;;;;;10.56;85.10;98171.67;105669;1324;23266;-90
2022/10/16 05:07:06;;;;;;;15.50;14.00;;;;;;;10.58;84.92;98171.71;105710;1323;22206;-92
2022/10/16 05:09:34;;;;;;;18.70;15.10;;;;;;;10.62;85.03;98169.77;105432;1323;22210;-89
2022/10/16 05:12:03;;;;;;;17.10;15.30;;;;;;;10.66;85.17;98168.69;105766;1307;22192;-92
2022/10/16 05:14:31;;;;;;;18.20;16.30;;;;;;;10.70;85.27;98170.84;105431;1317;22227;-89
2022/10/16 05:17:00;;;;;;;18.20;16.30;;;;;;;10.75;85.57;98170.70;106090;1316;22159;-89
2022/10/16 05:19:28;;;;;;;21.00;16.10;;;;;;;10.82;85.57;98172.27;105648;1324;22263;-92
2022/10/16 05:21:56;;;;;;;19.80;16.70;;;;;;;10.90;85.46;98173.27;105864;1301;22959;-88
2022/10/16 05:24:24;;;;;;;17.10;15.50;;;;;;;11.00;85.60;98172.73;106083;1301;22096;-81
2022/10/16 05:26:52;;;;;;;19.20;15.90;;;;;;;11.11;85.63;98171.31;105678;1320;22154;-92
2022/10/16 05:29:19;;;;;;;18.50;16.80;;;;;;;11.22;85.81;98175.30;105720;1301;22174;-91
2022/10/16 05:31:53;;;;;;;19.00;17.10;;;;;;;11.30;85.87;98168.62;105735;1323;22218;-89
2022/10/16 05:34:21;;;;;;;19.00;15.10;;;;;;;11.35;85.82;98174.25;105224;1324;22205;-92
2022/10/16 05:36:49;;;;;;;19.10;15.60;;;;;;;11.43;85.72;98178.44;105225;1324;22177;-84
2022/10/16 05:39:16;;;;;;;20.10;15.10;;;;;;;11.52;85.97;98179.98;105667;1323;22854;-93
2022/10/16 05:41:44;;;;;;;17.20;15.30;;;;;;;11.62;85.71;98183.96;106047;1298;22184;-88
2022/10/16 05:44:12;;;;;;;17.50;15.80;;;;;;;11.67;85.86;98179.83;106094;1316;22133;-93
2022/10/16 05:46:40;;;;;;;16.30;14.60;;;;;;;11.70;85.73;98182.58;105412;1327;21956;-83
2022/10/16 05:49:08;;;;;;;20.80;17.60;;;;;;;11.71;85.87;98182.46;105837;1321;22049;-82
2022/10/16 05:51:36;;;;;;;20.00;16.70;;;;;;;11.78;85.85;98192.90;105874;1310;22468;-86
2022/10/16 05:54:04;;;;;;;15.70;14.20;;;;;;;11.87;85.87;98197.73;105544;1302;22095;-81
2022/10/16 05:56:31;;;;;;;16.90;15.20;;;;;;;11.94;85.61;98208.30;106001;1305;21926;-80
2022/10/16 05:58:59;;;;;;;19.50;16.30;;;;;;;12.00;85.72;98214.00;105996;1289;22291;-81
2022/10/16 06:01:27;;;;;;;18.50;16.40;;;;;;;12.01;85.53;98216.52;105957;1286;21876;-81
2022/10/16 06:03:55;;;;;;;18.60;16.80;;;;;;;11.97;85.69;98216.16;106288;1285;22058;-78
2022/10/16 06:06:32;;;;;;;19.40;17.50;;;;;;;11.96;85.63;98218.73;106199;1279;22549;-80
2022/10/16 06:09:09;;;;;;;18.60;16.30;;;;;;;11.98;85.67;98225.23;105742;1286;23743;31
2022/10/16 06:11:56;;;;;;;17.80;16.00;;;;;;;11.99;85.42;98221.73;105840;1294;22702;31
2022/10/16 06:14:48;;;;;;;21.40;18.50;;;;;;;12.09;85.57;98231.71;100751;1287;22210;-79
2022/10/16 06:17:49;;;;;;;18.60;16.00;;;;;;;12.17;85.49;98238.04;96437;1285;22427;-80
2022/10/16 06:20:37;;;;;;;16.70;15.20;;;;;;;12.24;85.54;98244.30;103066;1292;22090;-80
2022/10/16 06:23:11;;;;;;;18.70;16.90;;;;;;;12.29;85.53;98249.73;106064;1292;22059;-79
2022/10/16 06:25:45;;;;;;;18.10;16.20;;;;;;;12.30;85.55;98251.61;106247;1292;22084;-81
2022/10/16 06:28:19;;;;;;;18.50;16.60;;;;;;;12.37;85.69;98254.33;105906;1289;22045;-77
2022/10/16 06:30:47;;;;;;;17.40;15.60;;;;;;;12.46;85.61;98263.77;106872;1308;22039;-78
2022/10/16 06:33:15;;;;;;;17.10;15.40;;;;;;;12.55;85.67;98266.07;106230;1282;22290;-84
2022/10/16 06:35:43;;;;;;;18.50;16.50;;;;;;;12.64;85.72;98267.65;105770;1323;22244;-85
2022/10/16 06:38:11;;;;;;;18.70;16.70;;;;;;;12.75;85.86;98269.32;105955;1291;22223;-90
2022/10/16 06:40:39;;;;;;;19.20;16.30;;;;;;;12.84;85.92;98269.84;105737;1321;22191;-85
2022/10/16 06:43:07;;;;;;;16.70;14.00;;;;;;;12.95;85.87;98279.59;105868;1319;21893;-86
2022/10/16 06:45:34;;;;;;;16.60;14.80;;;;;;;13.07;85.91;98279.00;105983;1283;22188;-85
2022/10/16 06:48:04;;;;;;;15.30;13.90;;;;;;;13.18;85.66;98281.13;105825;1291;22233;-85
2022/10/16 06:50:32;;;;;;;15.90;14.30;;;;;;;13.29;85.57;98282.15;106229;1294;21938;-85
2022/10/16 06:53:20;;;;;;;15.10;13.60;;;;;;;13.37;85.59;98282.17;107073;1292;22644;31
2022/10/16 06:56:13;;;;;;;15.20;13.70;;;;;;;13.45;85.62;98282.76;106056;1293;22431;-88
2022/10/16 06:58:42;;;;;;;15.20;13.70;;;;;;;13.51;85.59;98280.00;105681;1314;22143;-84
2022/10/16 07:01:11;;;;;;;15.90;14.40;;;;;;;13.58;85.25;98282.97;106516;1301;21907;-86
2022/10/16 07:03:59;;;;;;;16.60;14.80;;;;;;;13.64;85.33;98288.71;106137;1291;24738;-83
2022/10/16 07:06:31;;;;;;;16.40;13.90;;;;;;;13.76;85.14;98295.85;105663;1320;22154;-92
2022/10/16 07:09:02;;;;;;;17.50;13.40;;;;;;;13.91;85.15;98300.40;105712;1318;22108;-85
2022/10/16 07:11:39;;;;;;;16.20;14.70;;;;;;;14.04;85.04;98303.02;105840;1285;22250;31
2022/10/16 07:14:16;;;;;;;16.80;15.00;;;;;;;14.19;84.91;98297.33;105855;1315;22119;-91
2022/10/16 07:16:45;;;;;;;17.90;16.30;;;;;;;14.32;84.87;98299.09;105475;1324;22119;-86
2022/10/16 07:19:14;;;;;;;20.40;18.40;;;;;;;14.42;84.43;98294.73;105329;1315;22132;-84
2022/10/16 07:21:43;;;;;;;17.20;15.30;;;;;;;14.57;84.44;98296.38;105556;1318;21909;-89
2022/10/16 07:24:14;;;;;;;16.20;14.10;;;;;;;14.71;84.28;98290.05;105550;1318;21859;-92
2022/10/16 07:26:44;;;;;;;18.40;13.70;;;;;;;14.89;84.10;98298.73;105497;1324;21933;-88
2022/10/16 07:29:15;;;;;;;16.40;14.50;;;;;;;15.06;83.76;98299.27;105944;1301;22110;-91
2022/10/16 07:31:44;;;;;;;16.50;14.30;;;;;;;15.19;83.44;98299.88;105859;1312;22142;-85
2022/10/16 07:34:14;;;;;;;17.70;15.40;;;;;;;15.33;83.32;98302.56;105640;1293;22352;-89
2022/10/16 07:36:42;;;;;;;23.60;15.80;;;;;;;15.43;82.84;98300.84;105663;1294;23244;-89
2022/10/16 07:39:10;;;;;;;16.60;14.80;;;;;;;15.53;82.26;98302.98;106327;1298;22575;-90
2022/10/16 07:41:38;;;;;;;16.30;14.60;;;;;;;15.63;82.16;98300.95;105267;1323;22232;-88
2022/10/16 07:44:06;;;;;;;15.30;13.80;;;;;;;15.73;81.53;98301.81;105532;1318;22190;-88
2022/10/16 07:46:39;;;;;;;18.40;13.30;;;;;;;15.85;80.70;98308.67;106301;1289;23425;31
2022/10/16 07:49:16;;;;;;;14.20;12.90;;;;;;;15.93;80.61;98305.58;105965;1292;22152;31
2022/10/16 07:51:44;;;;;;;17.10;14.50;;;;;;;16.05;80.86;98306.25;106213;1294;22294;-89
2022/10/16 07:54:19;;;;;;;14.50;12.90;;;;;;;16.15;79.77;98309.23;105823;1286;23923;31
2022/10/16 07:56:47;;;;;;;16.20;12.70;;;;;;;16.21;79.48;98312.92;106408;1292;22030;-80
2022/10/16 07:59:15;;;;;;;17.60;13.80;;;;;;;16.31;79.62;98316.56;106823;1301;22074;-82
2022/10/16 08:01:43;;;;;;;17.30;13.70;;;;;;;16.37;78.83;98314.81;105720;1289;22210;-92
2022/10/16 08:04:11;;;;;;;15.00;12.60;;;;;;;16.46;78.10;98321.45;105733;1321;22166;-92
2022/10/16 08:06:46;;;;;;;13.00;11.10;;;;;;;16.56;78.51;98317.80;105935;1294;22332;-83
2022/10/16 08:09:14;;;;;;;12.90;11.60;;;;;;;16.68;78.41;98320.45;106477;1301;22184;-89
2022/10/16 08:11:42;;;;;;;14.50;11.20;;;;;;;16.82;77.95;98328.38;106489;1285;21950;-86
2022/10/16 08:14:09;;;;;;;12.70;11.40;;;;;;;16.91;77.45;98330.09;105876;1292;22075;-87
2022/10/16 08:16:47;;;;;;;14.50;10.60;;;;;;;16.97;77.27;98325.44;105812;1292;23783;-83
2022/10/16 08:19:15;;;;;;;12.90;11.40;;;;;;;17.00;75.22;98332.29;100909;1290;22186;-86
2022/10/16 08:21:47;;;;;;;11.10;10.00;;;;;;;17.01;75.30;98333.35;105854;1294;22198;-85
2022/10/16 08:24:15;;;;;;;12.20;11.00;;;;;;;17.00;75.74;98333.02;105529;1295;22197;-92
2022/10/16 08:26:48;;;;;;;12.30;10.50;;;;;;;17.04;75.80;98333.55;106078;1283;23826;31
2022/10/16 08:29:16;;;;;;;12.70;10.30;;;;;;;17.06;74.82;98334.20;105753;1287;22092;-88
2022/10/16 08:31:44;;;;;;;12.70;11.10;;;;;;;17.08;74.77;98333.85;106411;1295;22184;-85
2022/10/16 08:34:12;;;;;;;11.90;10.70;;;;;;;17.11;74.21;98330.73;106373;1307;22210;-92
2022/10/16 08:36:40;;;;;;;16.40;10.80;;;;;;;17.14;73.87;98330.12;105595;1321;22298;-87
2022/10/16 08:39:08;;;;;;;13.90;10.40;;;;;;;17.19;73.78;98333.66;106352;1291;22176;-87
2022/10/16 08:42:25;;;;;;;11.60;10.10;;;;;;;17.23;72.93;98338.01;106135;1295;21957;-81
2022/10/16 08:45:20;;;;;;;12.20;11.00;;;;;;;17.30;72.84;98345.13;106175;1285;22187;-91
2022/10/16 08:48:14;;;;;;;12.20;10.10;;;;;;;17.39;71.81;98344.36;105593;1300;22097;-89
2022/10/16 08:50:44;;;;;;;15.40;10.60;;;;;;;17.45;71.56;98357.65;106132;1314;22153;-89
2022/10/16 08:53:20;;;;;;;11.90;10.10;;;;;;;17.51;71.12;98361.61;105655;1323;22261;-83
2022/10/16 08:55:53;;;;;;;15.10;13.60;;;;;;;17.50;69.84;98365.65;105375;1320;22305;-83
2022/10/16 08:58:26;;;;;;;15.00;13.50;;;;;;;17.48;70.19;98365.41;105614;1321;22214;-91
2022/10/16 09:00:56;;;;;;;12.30;11.00;;;;;;;17.55;70.87;98359.66;105551;1323;22229;-90
2022/10/16 09:03:24;;;;;;;12.10;10.80;;;;;;;17.69;71.09;98356.45;105650;1315;22821;-91
2022/10/16 09:06:12;;;;;;;13.70;12.20;;;;;;;17.83;70.40;98351.58;106166;1313;22824;-92
2022/10/16 09:09:02;;;;;;;12.70;11.30;;;;;;;17.87;70.30;98358.36;105540;1324;22818;-91
2022/10/16 09:11:49;;;;;;;13.00;11.10;;;;;;;17.91;70.32;98356.19;105205;1324;22178;-90
2022/10/16 09:14:46;;;;;;;14.50;9.90;;;;;;;17.97;69.86;98355.20;105750;1302;22445;-91
2022/10/16 09:17:35;;;;;;;11.60;10.50;;;;;;;18.07;69.68;98358.84;105674;1302;22190;-89
2022/10/16 09:20:12;;;;;;;14.80;10.90;;;;;;;18.18;68.92;98359.05;105339;1324;22262;-89
2022/10/16 09:22:40;;;;;;;24.60;22.10;;;;;;;18.28;68.80;98361.42;105748;1308;22237;-90
2022/10/16 09:25:14;;;;;;;13.40;11.30;;;;;;;18.38;68.21;98358.48;105666;1302;22150;-86
2022/10/16 09:27:46;;;;;;;33.80;30.10;;;;;;;18.48;68.29;98359.33;105185;1324;22238;-90
2022/10/16 09:30:18;;;;;;;16.00;14.50;;;;;;;18.61;68.80;98361.16;105338;1318;21918;-86
2022/10/16 09:32:50;;;;;;;10.80;9.70;;;;;;;18.77;68.32;98358.70;105381;1315;22219;-85
2022/10/16 09:35:22;;;;;;;11.80;9.70;;;;;;;18.98;68.31;98361.66;105359;1324;22130;-90
2022/10/16 09:37:53;;;;;;;12.60;9.20;;;;;;;19.15;68.17;98366.41;105792;1309;22086;-89
2022/10/16 09:40:48;;;;;;;12.10;9.60;;;;;;;19.25;66.76;98365.61;106190;1303;21909;-88
2022/10/16 09:44:01;;;;;;;11.70;10.20;;;;;;;19.31;66.57;98367.59;105904;1300;22077;-90
2022/10/16 09:46:34;;;;;;;15.10;12.20;;;;;;;19.34;66.49;98365.41;105240;1324;22201;-89
2022/10/16 09:49:21;;;;;;;13.00;11.40;;;;;;;19.42;66.19;98360.05;105358;1324;22111;-90
2022/10/16 09:51:51;;;;;;;20.50;17.90;;;;;;;19.50;66.15;98362.38;105196;1317;22110;-90
2022/10/16 09:54:20;;;;;;;22.20;17.10;;;;;;;19.60;64.81;98364.77;105490;1323;22218;-88
2022/10/16 09:56:53;;;;;;;16.90;13.10;;;;;;;19.66;65.29;98365.58;105040;1323;22316;-87
2022/10/16 09:59:26;;;;;;;11.60;9.50;;;;;;;19.69;64.93;98370.21;105146;1324;22279;-89
2022/10/16 10:01:55;;;;;;;10.70;9.60;;;;;;;19.72;64.46;98378.58;105619;1321;21914;-85
2022/10/16 10:04:25;;;;;;;32.50;27.10;;;;;;;19.77;63.46;98369.90;105807;1308;22859;-90
2022/10/16 10:06:56;;;;;;;24.70;22.40;;;;;;;19.68;63.92;98372.39;105514;1302;164944;-88
2022/10/16 10:09:30;;;;;;;18.90;12.20;;;;;;;19.67;61.29;98377.64;105127;1324;22206;-88
2022/10/16 10:12:03;;;;;;;15.90;13.90;;;;;;;19.61;63.00;98381.42;105189;1317;22200;-87
2022/10/16 10:14:36;;;;;;;21.60;19.20;;;;;;;19.68;63.39;98380.66;105420;1317;22229;-88
2022/10/16 10:17:06;;;;;;;26.10;21.30;;;;;;;19.74;63.50;98383.93;105751;1297;22072;-88
2022/10/16 10:19:46;;;;;;;17.50;14.10;;;;;;;19.77;62.97;98383.55;105444;1324;22280;-89
2022/10/16 10:22:19;;;;;;;12.90;10.90;;;;;;;19.77;62.85;98382.70;105464;1323;22230;-87
2022/10/16 10:25:14;;;;;;;33.80;24.20;;;;;;;19.82;62.78;98382.06;105108;1324;22219;-91
2022/10/16 10:28:12;;;;;;;13.40;11.30;;;;;;;19.90;62.98;98384.16;105766;1315;22794;-91
2022/10/16 10:30:56;;;;;;;14.60;10.10;;;;;;;19.99;62.75;98378.38;105347;1324;22081;-91
2022/10/16 10:33:54;;;;;;;9.80;8.70;;;;;;;19.99;61.84;98383.15;105553;1324;22203;-91
2022/10/16 10:36:36;;;;;;;13.90;8.70;;;;;;;20.00;62.22;98379.19;105454;1324;22113;-91
2022/10/16 10:39:32;;;;;;;14.40;8.40;;;;;;;20.11;61.66;98377.77;105668;1305;21890;-89
2022/10/16 10:42:20;;;;;;;12.10;8.70;;;;;;;20.18;60.59;98377.89;105468;1324;22194;-87
2022/10/16 10:45:04;;;;;;;10.10;9.00;;;;;;;20.18;60.18;98375.41;105063;1319;23058;-86
2022/10/16 10:47:38;;;;;;;;;;;;;;;20.18;60.64;98377.24;105699;1309;23001;-91
2022/10/16 10:50:24;;;;;;;9.70;8.70;;;;;;;20.15;61.03;98368.96;105454;1319;22158;-90
2022/10/16 10:52:58;;;;;;;11.80;8.60;;;;;;;20.24;60.86;98379.20;105823;1315;22092;-89
2022/10/16 10:55:45;;;;;;;13.30;8.60;;;;;;;20.30;60.83;98373.98;105519;1318;22122;-90
2022/10/16 10:58:31;;;;;;;9.90;8.00;;;;;;;20.37;60.15;98371.58;105832;1302;22209;-91
2022/10/16 11:01:18;;;;;;;9.00;8.00;;;;;;;20.36;60.31;98374.13;105781;1302;22108;-90
2022/10/16 11:04:31;;;;;;;11.10;8.80;;;;;;;20.33;59.09;98374.53;105474;1323;22935;-90
2022/10/16 11:07:07;;;;;;;9.50;8.50;;;;;;;20.19;58.46;98371.04;105142;1324;22219;-86
2022/10/16 11:09:46;;;;;;;11.40;9.00;;;;;;;20.06;57.91;98375.59;105242;1323;22245;-89
2022/10/16 11:12:42;;;;;;;12.30;9.70;;;;;;;19.90;57.99;98378.30;105023;1324;22232;-89
2022/10/16 11:15:21;;;;;;;10.40;8.90;;;;;;;19.78;58.11;98375.77;105453;1308;22082;-90
2022/10/16 11:18:02;;;;;;;10.30;9.20;;;;;;;19.72;59.17;98372.73;105086;1324;22190;-86
2022/10/16 11:20:50;;;;;;;10.50;8.90;;;;;;;19.75;59.26;98369.52;105515;1324;22121;-91
2022/10/16 11:23:40;;;;;;;11.80;8.70;;;;;;;19.81;59.13;98371.40;105631;1301;22161;-87
2022/10/16 11:26:23;;;;;;;9.40;8.40;;;;;;;19.86;59.34;98372.11;105160;1324;22153;-91
2022/10/16 11:28:59;;;;;;;10.00;8.80;;;;;;;19.93;59.18;98366.97;105444;1324;22262;-92
2022/10/16 11:31:41;;;;;;;11.20;8.10;;;;;;;19.98;59.07;98372.42;105337;1324;22156;-92
2022/10/16 11:34:24;;;;;;;8.80;7.90;;;;;;;19.99;58.48;98374.23;105719;1303;22914;-90
2022/10/16 11:37:05;;;;;;;13.10;8.40;;;;;;;19.96;58.27;98373.48;105104;1325;21918;-91
2022/10/16 11:39:33;;;;;;;15.00;8.50;;;;;;;19.97;59.00;98374.59;105757;1311;22122;-89
2022/10/16 11:42:13;;;;;;;14.30;8.50;;;;;;;20.00;58.78;98374.99;105195;1324;22091;-86
2022/10/16 11:44:50;;;;;;;10.10;9.10;;;;;;;19.99;58.80;98375.40;105664;1315;22168;-91